createdAt,value
2022-11-06T08:02:03.869Z,24.13
2022-11-06T08:04:52.041Z,24.17
2022-11-06T08:07:41.332Z,23.50
2022-11-06T08:10:28.955Z,23.63
2022-11-06T08:13:18.505Z,22.50
2022-11-06T08:16:07.003Z,23.60
2022-11-06T08:18:54.640Z,24.87
2022-11-06T08:21:42.245Z,25.23
2022-11-06T08:24:31.373Z,23.63
2022-11-06T08:27:19.361Z,28.43
2022-11-06T08:30:08.403Z,27.87
2022-11-06T08:32:57.121Z,27.47
2022-11-06T08:35:44.797Z,27.57
2022-11-06T08:38:32.511Z,28.83
2022-11-06T08:41:21.853Z,27.50
2022-11-06T08:44:09.840Z,25.40
2022-11-06T08:46:57.735Z,23.90
2022-11-06T08:49:45.647Z,26.00
2022-11-06T08:52:34.372Z,25.30
2022-11-06T08:55:21.975Z,26.63
2022-11-06T08:58:10.867Z,29.37
2022-11-06T09:00:58.449Z,27.63
2022-11-06T09:03:46.040Z,28.63
2022-11-06T09:06:33.941Z,27.00
2022-11-06T09:09:22.112Z,28.33
2022-11-06T09:12:10.079Z,25.50
2022-11-06T09:14:58.989Z,28.07
2022-11-06T09:17:47.817Z,26.27
2022-11-06T09:20:35.903Z,25.87
2022-11-06T09:23:23.694Z,26.07
2022-11-06T09:26:11.324Z,24.17
2022-11-06T09:28:59.190Z,23.90
2022-11-06T09:31:48.378Z,18.42
2022-11-06T09:34:36.268Z,17.20
2022-11-06T09:37:23.775Z,16.90
2022-11-06T09:40:21.325Z,16.67
2022-11-06T09:43:50.326Z,14.80
2022-11-06T09:46:34.452Z,13.77
2022-11-06T09:49:27.748Z,13.80
2022-11-06T09:52:23.895Z,13.27
2022-11-06T09:55:17.280Z,14.40
2022-11-06T09:58:11.434Z,13.13
2022-11-06T10:01:03.714Z,13.82
2022-11-06T10:03:56.128Z,14.60
2022-11-06T10:06:45.031Z,12.93
2022-11-06T10:09:32.868Z,14.05
2022-11-06T10:12:28.035Z,13.40
2022-11-06T10:15:23.797Z,13.02
2022-11-06T10:18:22.278Z,12.80
2022-11-06T10:21:13.053Z,12.93
2022-11-06T10:24:12.891Z,12.73
2022-11-06T10:27:00.635Z,12.40
2022-11-06T10:30:07.683Z,12.25
2022-11-06T10:33:16.750Z,11.20
2022-11-06T10:36:11.077Z,11.05
2022-11-06T10:39:04.704Z,10.65
2022-11-06T10:41:59.618Z,8.32
2022-11-06T10:44:51.007Z,8.27
2022-11-06T10:47:42.232Z,7.20
2022-11-06T10:50:38.441Z,7.35
2022-11-06T10:53:33.586Z,7.32
2022-11-06T10:56:40.009Z,5.93
2022-11-06T10:59:28.498Z,6.15
2022-11-06T11:02:26.045Z,6.97
2022-11-06T11:05:15.653Z,6.53
2022-11-06T11:08:03.627Z,5.10
2022-11-06T11:11:04.479Z,4.38
2022-11-06T11:14:16.018Z,3.70
2022-11-06T11:17:09.343Z,3.92
2022-11-06T11:19:57.135Z,2.88
2022-11-06T11:22:44.728Z,2.65
2022-11-06T11:25:32.313Z,3.38
2022-11-06T11:28:32.119Z,3.03
2022-11-06T11:31:21.879Z,3.00
2022-11-06T11:34:18.456Z,3.28
2022-11-06T11:37:08.356Z,3.10
2022-11-06T11:39:57.653Z,2.95
2022-11-06T11:42:45.309Z,3.33
2022-11-06T11:45:32.675Z,3.30
2022-11-06T11:48:21.530Z,3.40
2022-11-06T11:51:20.489Z,3.20
2022-11-06T11:54:19.822Z,3.42
2022-11-06T11:57:09.848Z,3.65
2022-11-06T12:00:02.948Z,3.53
2022-11-06T12:02:54.642Z,3.63
2022-11-06T12:05:43.968Z,3.38
2022-11-06T12:08:31.976Z,3.05
2022-11-06T12:11:23.699Z,3.13
2022-11-06T12:14:32.557Z,2.83
2022-11-06T12:17:23.541Z,2.75
2022-11-06T12:20:15.257Z,3.03
2022-11-06T12:23:07.641Z,2.75
2022-11-06T12:26:02.811Z,3.20
2022-11-06T12:28:53.766Z,3.08
2022-11-06T12:31:44.243Z,3.30
2022-11-06T12:34:36.256Z,3.08
2022-11-06T12:37:36.534Z,3.60
2022-11-06T12:40:30.349Z,3.20
2022-11-06T12:43:24.609Z,2.95
2022-11-06T12:46:22.018Z,3.05
2022-11-06T12:49:29.474Z,2.75
2022-11-06T12:52:33.930Z,3.00
2022-11-06T12:55:29.058Z,2.58
2022-11-06T12:58:39.733Z,2.85
2022-11-06T13:01:41.752Z,3.35
2022-11-06T13:04:41.152Z,3.03
2022-11-06T13:07:48.282Z,3.25
2022-11-06T13:10:47.692Z,2.72
2022-11-06T13:13:50.834Z,3.10
2022-11-06T13:16:45.577Z,2.90
2022-11-06T13:19:38.990Z,2.60
2022-11-06T13:22:31.457Z,3.30
2022-11-06T13:25:24.323Z,2.60
2022-11-06T13:28:27.316Z,3.42
2022-11-06T13:31:18.856Z,3.13
2022-11-06T13:34:08.075Z,2.85
2022-11-06T13:36:56.985Z,3.15
2022-11-06T13:39:49.450Z,3.00
2022-11-06T13:42:42.755Z,2.83
2022-11-06T13:45:36.238Z,2.92
2022-11-06T13:48:38.154Z,2.97
2022-11-06T13:51:38.255Z,2.65
2022-11-06T13:54:40.953Z,2.90
2022-11-06T13:57:49.276Z,2.78
2022-11-06T14:00:48.925Z,2.90
2022-11-06T14:04:00.483Z,2.97
2022-11-06T14:06:52.732Z,2.28
2022-11-06T14:09:45.105Z,2.33
2022-11-06T14:12:32.902Z,2.92
2022-11-06T14:15:31.798Z,2.10
2022-11-06T14:18:24.884Z,2.20
2022-11-06T14:21:46.711Z,2.40
2022-11-06T14:24:35.706Z,2.70
2022-11-06T14:28:05.963Z,2.35
2022-11-06T14:34:05.517Z,2.42
2022-11-06T14:36:53.362Z,2.47
2022-11-06T14:40:06.367Z,2.35
2022-11-06T14:42:54.190Z,2.47
2022-11-06T14:45:52.092Z,2.30
2022-11-06T14:48:44.092Z,2.70
2022-11-06T14:51:33.219Z,2.88
2022-11-06T14:54:24.496Z,2.70
2022-11-06T14:57:18.203Z,3.08
2022-11-06T15:00:06.669Z,2.97
2022-11-06T15:02:56.666Z,3.10
2022-11-06T15:05:48.252Z,3.38
2022-11-06T15:09:00.945Z,3.10
2022-11-06T15:11:53.916Z,3.10
2022-11-06T15:15:07.655Z,3.70
2022-11-06T15:17:55.459Z,3.58
2022-11-06T15:20:46.994Z,3.60
2022-11-06T15:23:44.160Z,3.90
2022-11-06T15:26:41.463Z,5.18
2022-11-06T15:29:33.171Z,7.28
2022-11-06T15:32:24.178Z,10.23
2022-11-06T15:35:16.485Z,12.45
2022-11-06T15:38:11.699Z,12.90
2022-11-06T15:40:59.739Z,11.95
2022-11-06T15:43:50.746Z,12.00
2022-11-06T15:46:38.329Z,11.35
2022-11-06T15:49:27.224Z,12.07
2022-11-06T15:52:19.194Z,12.20
2022-11-06T15:55:08.002Z,12.48
2022-11-06T15:57:55.795Z,12.17
2022-11-06T16:00:45.867Z,14.20
2022-11-06T16:06:22.893Z,13.83
2022-11-06T16:09:17.791Z,14.23
2022-11-06T16:12:06.016Z,14.07
2022-11-06T16:14:53.759Z,13.63
2022-11-06T16:17:46.193Z,14.60
